sensor_id;sensor_type;location;lat;lon;timestamp;noise_LAeq;noise_LA_min;noise_LA_max;noise_LA01;noise_LA95
52872;Laerm;40124;52.198;9.902;2023-12-28T00:01:21;61.05;40.71;80.67;;
52872;Laerm;40124;52.198;9.902;2023-12-28T00:03:47;62.68;40.62;87.49;;
52872;Laerm;40124;52.198;9.902;2023-12-28T00:06:12;64.55;40.89;84.97;;
52872;Laerm;40124;52.198;9.902;2023-12-28T00:08:37;44.61;40.89;58.40;;
52872;Laerm;40124;52.198;9.902;2023-12-28T00:11:02;66.01;41.30;85.73;;
52872;Laerm;40124;52.198;9.902;2023-12-28T00:13:27;55.61;41.14;75.02;;
52872;Laerm;40124;52.198;9.902;2023-12-28T00:15:53;45.03;39.23;58.82;;
52872;Laerm;40124;52.198;9.902;2023-12-28T00:18:18;56.49;40.03;76.17;;
52872;Laerm;40124;52.198;9.902;2023-12-28T00:20:43;57.04;40.13;76.58;;
52872;Laerm;40124;52.198;9.902;2023-12-28T00:23:08;66.41;39.70;86.21;;
52872;Laerm;40124;52.198;9.902;2023-12-28T00:25:33;58.44;40.71;76.02;;
52872;Laerm;40124;52.198;9.902;2023-12-28T00:27:58;43.97;41.06;58.64;;
52872;Laerm;40124;52.198;9.902;2023-12-28T00:30:23;43.83;40.80;58.43;;
52872;Laerm;40124;52.198;9.902;2023-12-28T00:32:48;57.88;41.30;74.85;;
52872;Laerm;40124;52.198;9.902;2023-12-28T00:35:14;44.40;41.53;58.92;;
52872;Laerm;40124;52.198;9.902;2023-12-28T00:37:39;64.28;42.16;84.41;;
52872;Laerm;40124;52.198;9.902;2023-12-28T00:40:04;45.57;41.53;69.14;;
52872;Laerm;40124;52.198;9.902;2023-12-28T00:42:30;45.87;42.09;63.28;;
52872;Laerm;40124;52.198;9.902;2023-12-28T00:44:55;57.42;41.82;75.31;;
52872;Laerm;40124;52.198;9.902;2023-12-28T00:47:20;65.50;41.14;85.80;;
52872;Laerm;40124;52.198;9.902;2023-12-28T00:49:45;44.10;40.80;56.48;;
52872;Laerm;40124;52.198;9.902;2023-12-28T00:52:10;66.89;40.33;85.28;;
52872;Laerm;40124;52.198;9.902;2023-12-28T00:54:36;66.16;41.30;84.89;;
52872;Laerm;40124;52.198;9.902;2023-12-28T00:57:02;65.02;41.22;84.58;;
52872;Laerm;40124;52.198;9.902;2023-12-28T00:59:27;65.18;41.30;85.24;;
52872;Laerm;40124;52.198;9.902;2023-12-28T01:01:53;66.12;40.53;84.13;;
52872;Laerm;40124;52.198;9.902;2023-12-28T01:04:18;58.03;39.81;79.07;;
52872;Laerm;40124;52.198;9.902;2023-12-28T01:06:43;66.45;39.46;86.87;;
52872;Laerm;40124;52.198;9.902;2023-12-28T01:09:08;62.76;38.81;81.60;;
52872;Laerm;40124;52.198;9.902;2023-12-28T01:11:33;41.99;38.67;54.29;;
52872;Laerm;40124;52.198;9.902;2023-12-28T01:13:58;60.79;39.46;80.43;;
52872;Laerm;40124;52.198;9.902;2023-12-28T01:16:24;43.01;40.13;60.59;;
52872;Laerm;40124;52.198;9.902;2023-12-28T01:18:49;42.44;40.13;48.57;;
52872;Laerm;40124;52.198;9.902;2023-12-28T01:21:14;58.82;38.81;79.41;;
52872;Laerm;40124;52.198;9.902;2023-12-28T01:23:39;42.32;39.58;48.18;;
52872;Laerm;40124;52.198;9.902;2023-12-28T01:26:04;65.56;40.03;82.78;;
52872;Laerm;40124;52.198;9.902;2023-12-28T01:28:29;59.39;38.05;79.50;;
52872;Laerm;40124;52.198;9.902;2023-12-28T01:30:55;42.28;38.81;54.83;;
52872;Laerm;40124;52.198;9.902;2023-12-28T01:33:20;61.63;38.67;80.60;;
52872;Laerm;40124;52.198;9.902;2023-12-28T01:35:45;64.58;38.21;84.33;;
52872;Laerm;40124;52.198;9.902;2023-12-28T01:38:10;55.02;37.32;74.76;;
52872;Laerm;40124;52.198;9.902;2023-12-28T01:40:35;67.91;38.52;87.36;;
52872;Laerm;40124;52.198;9.902;2023-12-28T01:43:01;49.34;40.33;70.33;;
52872;Laerm;40124;52.198;9.902;2023-12-28T01:45:26;59.88;39.81;81.23;;
52872;Laerm;40124;52.198;9.902;2023-12-28T01:47:52;41.63;38.52;48.03;;
52872;Laerm;40124;52.198;9.902;2023-12-28T01:50:18;42.25;39.08;51.52;;
52872;Laerm;40124;52.198;9.902;2023-12-28T01:52:43;70.89;42.90;88.71;;
52872;Laerm;40124;52.198;9.902;2023-12-28T01:55:09;43.10;40.03;56.07;;
52872;Laerm;40124;52.198;9.902;2023-12-28T01:57:34;44.29;39.70;57.99;;
52872;Laerm;40124;52.198;9.902;2023-12-28T01:59:59;42.40;39.21;48.37;;
52872;Laerm;40124;52.198;9.902;2023-12-28T02:02:26;60.68;40.13;80.17;;
52872;Laerm;40124;52.198;9.902;2023-12-28T02:04:52;59.14;40.18;80.26;;
52872;Laerm;40124;52.198;9.902;2023-12-28T02:07:17;60.79;40.23;79.72;;
52872;Laerm;40124;52.198;9.902;2023-12-28T02:09:43;44.00;41.46;56.88;;
52872;Laerm;40124;52.198;9.902;2023-12-28T02:12:08;59.80;41.48;78.77;;
52872;Laerm;40124;52.198;9.902;2023-12-28T02:14:33;53.40;41.53;71.91;;
52872;Laerm;40124;52.198;9.902;2023-12-28T02:17:00;59.56;42.65;81.12;;
52872;Laerm;40124;52.198;9.902;2023-12-28T02:19:32;46.40;42.19;60.95;;
52872;Laerm;40124;52.198;9.902;2023-12-28T02:22:01;45.38;42.71;59.58;;
52872;Laerm;40124;52.198;9.902;2023-12-28T02:24:27;45.63;42.98;56.81;;
52872;Laerm;40124;52.198;9.902;2023-12-28T02:26:52;50.22;43.29;76.77;;
52872;Laerm;40124;52.198;9.902;2023-12-28T02:29:18;47.65;42.09;66.61;;
52872;Laerm;40124;52.198;9.902;2023-12-28T02:31:49;45.02;41.82;57.65;;
52872;Laerm;40124;52.198;9.902;2023-12-28T02:34:19;61.83;42.41;84.77;;
52872;Laerm;40124;52.198;9.902;2023-12-28T02:36:46;67.18;42.22;87.73;;
52872;Laerm;40124;52.198;9.902;2023-12-28T02:39:13;58.97;43.04;79.45;;
52872;Laerm;40124;52.198;9.902;2023-12-28T02:41:39;68.22;41.96;88.12;;
52872;Laerm;40124;52.198;9.902;2023-12-28T02:44:04;45.32;40.89;60.59;;
52872;Laerm;40124;52.198;9.902;2023-12-28T02:46:29;59.31;41.30;80.71;;
52872;Laerm;40124;52.198;9.902;2023-12-28T02:48:54;45.37;41.68;58.30;;
52872;Laerm;40124;52.198;9.902;2023-12-28T02:51:22;43.62;40.53;54.91;;
52872;Laerm;40124;52.198;9.902;2023-12-28T02:53:47;43.33;40.03;57.58;;
52872;Laerm;40124;52.198;9.902;2023-12-28T02:56:12;61.58;40.33;80.49;;
52872;Laerm;40124;52.198;9.902;2023-12-28T02:58:37;62.49;40.53;81.60;;
52872;Laerm;40124;52.198;9.902;2023-12-28T03:01:02;43.10;38.81;57.20;;
52872;Laerm;40124;52.198;9.902;2023-12-28T03:03:27;42.80;39.58;53.11;;
52872;Laerm;40124;52.198;9.902;2023-12-28T03:05:53;42.80;40.23;48.20;;
52872;Laerm;40124;52.198;9.902;2023-12-28T03:08:18;66.35;40.43;87.11;;
52872;Laerm;40124;52.198;9.902;2023-12-28T03:10:43;65.92;40.62;84.43;;
52872;Laerm;40124;52.198;9.902;2023-12-28T03:13:08;63.67;39.70;85.61;;
52872;Laerm;40124;52.198;9.902;2023-12-28T03:15:33;59.07;40.33;80.99;;
52872;Laerm;40124;52.198;9.902;2023-12-28T03:17:58;69.28;40.13;87.11;;
52872;Laerm;40124;52.198;9.902;2023-12-28T03:20:24;59.01;38.87;80.66;;
52872;Laerm;40124;52.198;9.902;2023-12-28T03:22:49;42.88;40.23;51.91;;
52872;Laerm;40124;52.198;9.902;2023-12-28T03:25:14;42.92;39.70;54.67;;
52872;Laerm;40124;52.198;9.902;2023-12-28T03:27:39;65.16;39.46;85.59;;
52872;Laerm;40124;52.198;9.902;2023-12-28T03:30:04;68.35;39.70;87.83;;
52872;Laerm;40124;52.198;9.902;2023-12-28T03:32:30;58.06;39.21;77.39;;
52872;Laerm;40124;52.198;9.902;2023-12-28T03:34:55;42.38;38.81;53.81;;
52872;Laerm;40124;52.198;9.902;2023-12-28T03:37:20;65.91;38.95;85.17;;
52872;Laerm;40124;52.198;9.902;2023-12-28T03:39:45;43.29;38.52;57.45;;
52872;Laerm;40124;52.198;9.902;2023-12-28T03:42:10;69.18;40.33;89.97;;
52872;Laerm;40124;52.198;9.902;2023-12-28T03:44:35;42.63;38.81;46.18;;
52872;Laerm;40124;52.198;9.902;2023-12-28T03:47:01;69.40;40.71;91.39;;
52872;Laerm;40124;52.198;9.902;2023-12-28T03:49:26;69.08;39.58;89.52;;
52872;Laerm;40124;52.198;9.902;2023-12-28T03:51:51;60.64;40.33;80.45;;
52872;Laerm;40124;52.198;9.902;2023-12-28T03:54:17;67.32;39.34;86.59;;
52872;Laerm;40124;52.198;9.902;2023-12-28T03:56:42;60.53;39.21;82.28;;
52872;Laerm;40124;52.198;9.902;2023-12-28T03:59:08;46.43;38.52;64.95;;
52872;Laerm;40124;52.198;9.902;2023-12-28T04:01:33;61.80;37.88;82.05;;
52872;Laerm;40124;52.198;9.902;2023-12-28T04:03:58;57.05;42.29;73.60;;
52872;Laerm;40124;52.198;9.902;2023-12-28T04:06:23;59.01;41.75;75.52;;
52872;Laerm;40124;52.198;9.902;2023-12-28T04:08:49;60.73;41.46;80.94;;
52872;Laerm;40124;52.198;9.902;2023-12-28T04:11:14;68.27;42.00;86.68;;
52872;Laerm;40124;52.198;9.902;2023-12-28T04:13:39;55.40;41.61;74.92;;
52872;Laerm;40124;52.198;9.902;2023-12-28T04:16:04;71.02;41.96;89.69;;
52872;Laerm;40124;52.198;9.902;2023-12-28T04:18:29;65.15;39.81;86.34;;
52872;Laerm;40124;52.198;9.902;2023-12-28T04:20:54;63.99;40.71;79.79;;
52872;Laerm;40124;52.198;9.902;2023-12-28T04:23:20;44.24;39.81;50.61;;
52872;Laerm;40124;52.198;9.902;2023-12-28T04:25:45;67.15;41.14;85.49;;
52872;Laerm;40124;52.198;9.902;2023-12-28T04:28:10;67.15;39.81;88.64;;
52872;Laerm;40124;52.198;9.902;2023-12-28T04:30:35;66.64;39.92;83.96;;
52872;Laerm;40124;52.198;9.902;2023-12-28T04:33:01;63.35;38.37;80.99;;
52872;Laerm;40124;52.198;9.902;2023-12-28T04:35:26;62.31;40.23;80.79;;
52872;Laerm;40124;52.198;9.902;2023-12-28T04:37:51;67.44;41.75;83.53;;
52872;Laerm;40124;52.198;9.902;2023-12-28T04:40:16;61.92;38.52;79.79;;
52872;Laerm;40124;52.198;9.902;2023-12-28T04:42:42;69.76;39.34;88.96;;
52872;Laerm;40124;52.198;9.902;2023-12-28T04:45:07;74.69;42.59;91.97;;
52872;Laerm;40124;52.198;9.902;2023-12-28T04:47:32;66.75;40.23;87.14;;
52872;Laerm;40124;52.198;9.902;2023-12-28T04:49:57;69.28;40.43;86.62;;
52872;Laerm;40124;52.198;9.902;2023-12-28T04:52:22;60.45;40.03;80.14;;
52872;Laerm;40124;52.198;9.902;2023-12-28T04:54:47;61.95;39.46;80.32;;
52872;Laerm;40124;52.198;9.902;2023-12-28T04:57:14;68.96;41.89;86.27;;
52872;Laerm;40124;52.198;9.902;2023-12-28T04:59:39;62.74;39.08;79.87;;
52872;Laerm;40124;52.198;9.902;2023-12-28T05:02:05;67.49;39.21;87.38;;
52872;Laerm;40124;52.198;9.902;2023-12-28T05:04:30;66.82;44.49;80.86;;
52872;Laerm;40124;52.198;9.902;2023-12-28T05:06:55;68.84;40.43;88.72;;
52872;Laerm;40124;52.198;9.902;2023-12-28T05:09:20;62.86;40.23;81.57;;
52872;Laerm;40124;52.198;9.902;2023-12-28T05:11:46;67.65;40.80;84.50;;
52872;Laerm;40124;52.198;9.902;2023-12-28T05:14:11;67.52;41.68;87.12;;
52872;Laerm;40124;52.198;9.902;2023-12-28T05:16:36;65.14;40.98;81.14;;
52872;Laerm;40124;52.198;9.902;2023-12-28T05:19:01;64.21;41.89;78.17;;
52872;Laerm;40124;52.198;9.902;2023-12-28T05:21:26;68.68;44.39;81.16;;
52872;Laerm;40124;52.198;9.902;2023-12-28T05:23:51;67.91;37.70;85.77;;
52872;Laerm;40124;52.198;9.902;2023-12-28T05:26:17;63.56;39.21;79.57;;
52872;Laerm;40124;52.198;9.902;2023-12-28T05:28:42;64.30;39.58;82.55;;
52872;Laerm;40124;52.198;9.902;2023-12-28T05:31:07;67.85;39.34;81.76;;
52872;Laerm;40124;52.198;9.902;2023-12-28T05:33:32;62.67;40.98;78.96;;
52872;Laerm;40124;52.198;9.902;2023-12-28T05:35:57;70.11;42.41;88.35;;
52872;Laerm;40124;52.198;9.902;2023-12-28T05:38:22;68.40;43.90;82.78;;
52872;Laerm;40124;52.198;9.902;2023-12-28T05:40:47;71.88;43.19;91.90;;
52872;Laerm;40124;52.198;9.902;2023-12-28T05:43:13;68.00;43.34;83.49;;
52872;Laerm;40124;52.198;9.902;2023-12-28T05:45:38;68.87;42.88;84.14;;
52872;Laerm;40124;52.198;9.902;2023-12-28T05:48:03;66.44;41.22;84.06;;
52872;Laerm;40124;52.198;9.902;2023-12-28T05:50:28;64.24;41.22;84.10;;
52872;Laerm;40124;52.198;9.902;2023-12-28T05:52:53;66.82;42.88;82.42;;
52872;Laerm;40124;52.198;9.902;2023-12-28T05:55:19;62.57;40.13;80.16;;
52872;Laerm;40124;52.198;9.902;2023-12-28T05:57:45;62.47;39.81;80.76;;
52872;Laerm;40124;52.198;9.902;2023-12-28T06:00:10;65.13;42.71;79.42;;
52872;Laerm;40124;52.198;9.902;2023-12-28T06:02:36;67.27;42.03;84.79;;
52872;Laerm;40124;52.198;9.902;2023-12-28T06:05:01;66.81;42.93;82.84;;
52872;Laerm;40124;52.198;9.902;2023-12-28T06:07:26;64.25;41.22;81.16;;
52872;Laerm;40124;52.198;9.902;2023-12-28T06:09:51;65.36;41.46;79.57;;
52872;Laerm;40124;52.198;9.902;2023-12-28T06:12:16;63.97;41.82;79.50;;
52872;Laerm;40124;52.198;9.902;2023-12-28T06:14:41;66.63;43.24;81.66;;
52872;Laerm;40124;52.198;9.902;2023-12-28T06:17:06;68.01;40.53;83.61;;
52872;Laerm;40124;52.198;9.902;2023-12-28T06:19:32;63.70;41.06;79.91;;
52872;Laerm;40124;52.198;9.902;2023-12-28T06:21:58;64.96;39.34;81.96;;
52872;Laerm;40124;52.198;9.902;2023-12-28T06:24:23;66.77;39.34;84.40;;
52872;Laerm;40124;52.198;9.902;2023-12-28T06:26:48;65.78;40.03;86.87;;
52872;Laerm;40124;52.198;9.902;2023-12-28T06:29:13;60.89;40.13;76.41;;
52872;Laerm;40124;52.198;9.902;2023-12-28T06:31:38;68.96;42.06;88.78;;
52872;Laerm;40124;52.198;9.902;2023-12-28T06:34:04;65.80;41.53;81.08;;
52872;Laerm;40124;52.198;9.902;2023-12-28T06:36:29;67.65;44.07;83.15;;
52872;Laerm;40124;52.198;9.902;2023-12-28T06:38:55;67.43;41.38;82.91;;
52872;Laerm;40124;52.198;9.902;2023-12-28T06:41:20;65.68;41.61;81.59;;
52872;Laerm;40124;52.198;9.902;2023-12-28T06:43:45;68.02;43.04;82.95;;
52872;Laerm;40124;52.198;9.902;2023-12-28T06:46:10;71.67;41.68;87.57;;
52872;Laerm;40124;52.198;9.902;2023-12-28T06:48:35;68.50;41.68;85.73;;
52872;Laerm;40124;52.198;9.902;2023-12-28T06:51:01;68.29;44.15;84.12;;
52872;Laerm;40124;52.198;9.902;2023-12-28T06:53:27;66.68;41.68;83.75;;
52872;Laerm;40124;52.198;9.902;2023-12-28T06:55:52;69.15;40.43;84.65;;
52872;Laerm;40124;52.198;9.902;2023-12-28T06:58:17;65.86;40.89;81.66;;
52872;Laerm;40124;52.198;9.902;2023-12-28T07:00:42;65.81;42.93;81.54;;
52872;Laerm;40124;52.198;9.902;2023-12-28T07:03:08;68.83;43.24;84.52;;
52872;Laerm;40124;52.198;9.902;2023-12-28T07:05:34;62.57;42.65;78.10;;
52872;Laerm;40124;52.198;9.902;2023-12-28T07:07:59;65.42;40.89;79.79;;
52872;Laerm;40124;52.198;9.902;2023-12-28T07:10:24;68.13;41.75;85.96;;
52872;Laerm;40124;52.198;9.902;2023-12-28T07:12:49;66.15;44.51;81.16;;
52872;Laerm;40124;52.198;9.902;2023-12-28T07:15:14;67.01;42.29;81.67;;
52872;Laerm;40124;52.198;9.902;2023-12-28T07:17:40;64.92;41.46;82.02;;
52872;Laerm;40124;52.198;9.902;2023-12-28T07:20:05;65.40;40.71;80.41;;
52872;Laerm;40124;52.198;9.902;2023-12-28T07:22:30;70.71;42.65;87.86;;
52872;Laerm;40124;52.198;9.902;2023-12-28T07:24:55;68.32;41.46;84.19;;
52872;Laerm;40124;52.198;9.902;2023-12-28T07:27:20;67.92;46.10;84.16;;
52872;Laerm;40124;52.198;9.902;2023-12-28T07:29:45;65.12;43.81;79.16;;
52872;Laerm;40124;52.198;9.902;2023-12-28T07:32:11;67.73;40.98;85.26;;
52872;Laerm;40124;52.198;9.902;2023-12-28T07:34:36;64.08;41.46;80.64;;
52872;Laerm;40124;52.198;9.902;2023-12-28T07:37:01;69.80;41.68;85.57;;
52872;Laerm;40124;52.198;9.902;2023-12-28T07:39:26;69.92;46.97;87.36;;
52872;Laerm;40124;52.198;9.902;2023-12-28T07:41:51;74.98;43.44;91.32;;
52872;Laerm;40124;52.198;9.902;2023-12-28T07:44:17;65.63;42.29;79.02;;
52872;Laerm;40124;52.198;9.902;2023-12-28T07:46:42;69.61;41.82;86.50;;
52872;Laerm;40124;52.198;9.902;2023-12-28T07:49:07;66.57;41.46;78.19;;
52872;Laerm;40124;52.198;9.902;2023-12-28T07:51:32;70.61;40.53;88.18;;
52872;Laerm;40124;52.198;9.902;2023-12-28T07:53:57;68.36;47.48;82.91;;
52872;Laerm;40124;52.198;9.902;2023-12-28T07:56:22;69.69;44.31;82.80;;
52872;Laerm;40124;52.198;9.902;2023-12-28T07:58:47;70.48;46.23;86.77;;
52872;Laerm;40124;52.198;9.902;2023-12-28T08:01:13;69.36;46.38;85.62;;
52872;Laerm;40124;52.198;9.902;2023-12-28T08:03:38;67.85;42.65;81.45;;
52872;Laerm;40124;52.198;9.902;2023-12-28T08:06:03;67.22;42.71;80.41;;
52872;Laerm;40124;52.198;9.902;2023-12-28T08:08:28;66.51;43.09;79.40;;
52872;Laerm;40124;52.198;9.902;2023-12-28T08:10:53;67.12;44.62;80.90;;
52872;Laerm;40124;52.198;9.902;2023-12-28T08:13:19;66.50;41.68;83.09;;
52872;Laerm;40124;52.198;9.902;2023-12-28T08:15:44;67.56;42.35;81.07;;
52872;Laerm;40124;52.198;9.902;2023-12-28T08:18:11;70.93;46.62;86.26;;
52872;Laerm;40124;52.198;9.902;2023-12-28T08:20:36;68.57;43.77;80.54;;
52872;Laerm;40124;52.198;9.902;2023-12-28T08:23:01;62.46;40.80;77.49;;
52872;Laerm;40124;52.198;9.902;2023-12-28T08:25:26;69.07;44.90;85.81;;
52872;Laerm;40124;52.198;9.902;2023-12-28T08:27:52;66.82;40.98;80.24;;
52872;Laerm;40124;52.198;9.902;2023-12-28T08:30:17;70.48;47.02;86.29;;
52872;Laerm;40124;52.198;9.902;2023-12-28T08:32:42;67.93;42.59;83.16;;
52872;Laerm;40124;52.198;9.902;2023-12-28T08:35:07;70.60;43.68;86.41;;
52872;Laerm;40124;52.198;9.902;2023-12-28T08:37:32;69.28;48.00;80.42;;
52872;Laerm;40124;52.198;9.902;2023-12-28T08:39:58;72.78;45.91;88.38;;
52872;Laerm;40124;52.198;9.902;2023-12-28T08:42:23;70.19;49.04;87.59;;
52872;Laerm;40124;52.198;9.902;2023-12-28T08:44:49;69.38;45.23;79.89;;
52872;Laerm;40124;52.198;9.902;2023-12-28T08:47:14;70.77;46.80;84.80;;
52872;Laerm;40124;52.198;9.902;2023-12-28T08:49:39;75.72;48.00;93.50;;
52872;Laerm;40124;52.198;9.902;2023-12-28T08:52:06;68.69;42.35;80.94;;
52872;Laerm;40124;52.198;9.902;2023-12-28T08:54:31;64.99;42.71;81.88;;
52872;Laerm;40124;52.198;9.902;2023-12-28T08:56:56;69.82;45.66;85.67;;
52872;Laerm;40124;52.198;9.902;2023-12-28T08:59:21;71.48;46.48;86.33;;
52872;Laerm;40124;52.198;9.902;2023-12-28T09:01:46;70.54;43.81;83.83;;
52872;Laerm;40124;52.198;9.902;2023-12-28T09:04:12;70.29;45.69;86.28;;
52872;Laerm;40124;52.198;9.902;2023-12-28T09:06:38;70.56;47.96;82.53;;
52872;Laerm;40124;52.198;9.902;2023-12-28T09:09:04;70.06;44.58;84.08;;
52872;Laerm;40124;52.198;9.902;2023-12-28T09:11:29;69.62;44.73;81.88;;
52872;Laerm;40124;52.198;9.902;2023-12-28T09:13:54;70.44;45.99;89.13;;
52872;Laerm;40124;52.198;9.902;2023-12-28T09:16:20;68.98;44.87;79.75;;
52872;Laerm;40124;52.198;9.902;2023-12-28T09:18:45;67.77;42.29;81.03;;
52872;Laerm;40124;52.198;9.902;2023-12-28T09:21:10;68.58;44.51;80.13;;
52872;Laerm;40124;52.198;9.902;2023-12-28T09:23:35;70.62;42.76;89.71;;
52872;Laerm;40124;52.198;9.902;2023-12-28T09:26:01;67.80;44.54;81.40;;
52872;Laerm;40124;52.198;9.902;2023-12-28T09:28:28;70.07;54.80;82.97;;
52872;Laerm;40124;52.198;9.902;2023-12-28T09:30:53;68.36;46.93;79.60;;
52872;Laerm;40124;52.198;9.902;2023-12-28T09:33:18;69.70;47.06;81.74;;
52872;Laerm;40124;52.198;9.902;2023-12-28T09:35:44;64.99;44.76;78.65;;
52872;Laerm;40124;52.198;9.902;2023-12-28T09:38:09;69.95;50.03;82.84;;
52872;Laerm;40124;52.198;9.902;2023-12-28T09:40:37;67.65;44.11;79.73;;
52872;Laerm;40124;52.198;9.902;2023-12-28T09:45:49;67.65;45.48;79.79;;
52872;Laerm;40124;52.198;9.902;2023-12-28T09:48:17;69.59;45.75;83.05;;
52872;Laerm;40124;52.198;9.902;2023-12-28T09:50:52;65.82;43.14;78.06;;
52872;Laerm;40124;52.198;9.902;2023-12-28T09:53:22;67.82;44.73;78.80;;
52872;Laerm;40124;52.198;9.902;2023-12-28T09:55:48;70.78;47.63;88.94;;
52872;Laerm;40124;52.198;9.902;2023-12-28T09:58:14;69.89;46.89;84.86;;
52872;Laerm;40124;52.198;9.902;2023-12-28T10:00:41;69.69;46.93;87.03;;
52872;Laerm;40124;52.198;9.902;2023-12-28T10:03:08;68.74;50.35;80.87;;
52872;Laerm;40124;52.198;9.902;2023-12-28T10:05:34;66.34;42.35;80.18;;
52872;Laerm;40124;52.198;9.902;2023-12-28T10:07:59;66.89;47.02;78.57;;
52872;Laerm;40124;52.198;9.902;2023-12-28T10:10:24;69.11;51.38;83.00;;
52872;Laerm;40124;52.198;9.902;2023-12-28T10:12:49;71.46;49.60;87.48;;
52872;Laerm;40124;52.198;9.902;2023-12-28T10:15:15;69.56;46.35;79.83;;
52872;Laerm;40124;52.198;9.902;2023-12-28T10:17:40;67.93;44.39;82.79;;
52872;Laerm;40124;52.198;9.902;2023-12-28T10:20:06;69.13;47.18;82.38;;
52872;Laerm;40124;52.198;9.902;2023-12-28T10:22:34;69.17;47.52;79.77;;
52872;Laerm;40124;52.198;9.902;2023-12-28T10:24:59;69.93;47.88;84.51;;
52872;Laerm;40124;52.198;9.902;2023-12-28T10:27:25;68.12;44.11;80.13;;
52872;Laerm;40124;52.198;9.902;2023-12-28T10:29:57;71.39;43.39;89.48;;
52872;Laerm;40124;52.198;9.902;2023-12-28T10:32:22;68.74;45.39;81.63;;
52872;Laerm;40124;52.198;9.902;2023-12-28T10:34:49;73.51;44.80;89.27;;
52872;Laerm;40124;52.198;9.902;2023-12-28T10:37:15;71.63;48.88;86.43;;
52872;Laerm;40124;52.198;9.902;2023-12-28T10:39:42;71.39;49.56;84.09;;
52872;Laerm;40124;52.198;9.902;2023-12-28T10:42:11;64.98;42.88;79.26;;
52872;Laerm;40124;52.198;9.902;2023-12-28T10:44:39;70.20;45.23;86.71;;
52872;Laerm;40124;52.198;9.902;2023-12-28T10:47:07;67.91;44.19;83.34;;
52872;Laerm;40124;52.198;9.902;2023-12-28T10:49:35;69.29;43.09;85.27;;
52872;Laerm;40124;52.198;9.902;2023-12-28T10:52:02;68.66;46.28;77.60;;
52872;Laerm;40124;52.198;9.902;2023-12-28T10:54:47;68.60;47.14;83.30;;
52872;Laerm;40124;52.198;9.902;2023-12-28T10:57:23;68.98;45.14;79.48;;
52872;Laerm;40124;52.198;9.902;2023-12-28T10:59:56;65.97;43.68;80.32;;
52872;Laerm;40124;52.198;9.902;2023-12-28T11:02:24;70.11;51.02;82.23;;
52872;Laerm;40124;52.198;9.902;2023-12-28T11:04:53;72.27;46.07;91.50;;
52872;Laerm;40124;52.198;9.902;2023-12-28T11:07:18;70.22;48.37;81.09;;
52872;Laerm;40124;52.198;9.902;2023-12-28T11:09:44;70.09;49.18;81.07;;
52872;Laerm;40124;52.198;9.902;2023-12-28T11:12:09;77.82;44.80;95.81;;
52872;Laerm;40124;52.198;9.902;2023-12-28T11:14:40;68.35;44.03;80.29;;
52872;Laerm;40124;52.198;9.902;2023-12-28T11:17:06;71.64;48.07;87.87;;
52872;Laerm;40124;52.198;9.902;2023-12-28T11:19:34;67.29;41.89;79.31;;
52872;Laerm;40124;52.198;9.902;2023-12-28T11:22:01;69.93;41.75;81.57;;
52872;Laerm;40124;52.198;9.902;2023-12-28T11:24:29;69.75;48.46;82.50;;
52872;Laerm;40124;52.198;9.902;2023-12-28T11:26:56;68.70;45.04;80.23;;
52872;Laerm;40124;52.198;9.902;2023-12-28T11:29:22;71.80;44.15;85.88;;
52872;Laerm;40124;52.198;9.902;2023-12-28T11:31:59;72.04;46.48;88.71;;
52872;Laerm;40124;52.198;9.902;2023-12-28T11:34:25;70.73;48.91;80.80;;
52872;Laerm;40124;52.198;9.902;2023-12-28T11:36:51;71.06;44.11;85.19;;
52872;Laerm;40124;52.198;9.902;2023-12-28T11:39:32;68.81;44.90;80.87;;
52872;Laerm;40124;52.198;9.902;2023-12-28T11:42:05;70.91;49.77;84.21;;
52872;Laerm;40124;52.198;9.902;2023-12-28T11:44:30;69.06;44.51;80.65;;
52872;Laerm;40124;52.198;9.902;2023-12-28T11:46:56;68.75;45.54;82.73;;
52872;Laerm;40124;52.198;9.902;2023-12-28T11:49:25;68.66;43.90;83.24;;
52872;Laerm;40124;52.198;9.902;2023-12-28T11:51:54;69.89;44.47;81.47;;
52872;Laerm;40124;52.198;9.902;2023-12-28T11:54:19;71.02;46.95;87.21;;
52872;Laerm;40124;52.198;9.902;2023-12-28T11:56:44;64.51;42.16;78.02;;
52872;Laerm;40124;52.198;9.902;2023-12-28T11:59:10;70.91;45.42;85.42;;
52872;Laerm;40124;52.198;9.902;2023-12-28T12:01:35;66.88;42.09;79.30;;
52872;Laerm;40124;52.198;9.902;2023-12-28T12:04:00;68.83;44.80;80.46;;
52872;Laerm;40124;52.198;9.902;2023-12-28T12:06:25;67.54;45.30;79.05;;
52872;Laerm;40124;52.198;9.902;2023-12-28T12:08:51;67.58;43.44;80.50;;
52872;Laerm;40124;52.198;9.902;2023-12-28T12:11:16;67.54;47.63;81.20;;
52872;Laerm;40124;52.198;9.902;2023-12-28T12:13:42;68.21;45.20;79.42;;
52872;Laerm;40124;52.198;9.902;2023-12-28T12:16:07;71.61;42.65;89.70;;
52872;Laerm;40124;52.198;9.902;2023-12-28T12:18:33;67.42;45.14;80.14;;
52872;Laerm;40124;52.198;9.902;2023-12-28T12:20:59;70.87;47.37;83.55;;
52872;Laerm;40124;52.198;9.902;2023-12-28T12:23:25;69.01;45.27;82.87;;
52872;Laerm;40124;52.198;9.902;2023-12-28T12:25:50;70.80;51.05;81.06;;
52872;Laerm;40124;52.198;9.902;2023-12-28T12:28:16;73.99;48.98;90.45;;
52872;Laerm;40124;52.198;9.902;2023-12-28T12:30:48;72.10;53.42;87.02;;
52872;Laerm;40124;52.198;9.902;2023-12-28T12:33:13;68.80;48.84;80.84;;
52872;Laerm;40124;52.198;9.902;2023-12-28T12:35:40;69.20;43.44;82.10;;
52872;Laerm;40124;52.198;9.902;2023-12-28T12:38:05;69.16;45.07;81.49;;
52872;Laerm;40124;52.198;9.902;2023-12-28T12:40:31;70.17;46.89;82.47;;
52872;Laerm;40124;52.198;9.902;2023-12-28T12:42:56;71.43;47.91;88.54;;
52872;Laerm;40124;52.198;9.902;2023-12-28T12:45:21;70.79;44.56;84.41;;
52872;Laerm;40124;52.198;9.902;2023-12-28T12:47:47;69.63;45.33;82.62;;
52872;Laerm;40124;52.198;9.902;2023-12-28T12:50:12;71.03;44.94;88.93;;
52872;Laerm;40124;52.198;9.902;2023-12-28T12:52:37;70.73;44.31;84.22;;
52872;Laerm;40124;52.198;9.902;2023-12-28T12:55:03;71.44;46.35;86.55;;
52872;Laerm;40124;52.198;9.902;2023-12-28T12:57:28;70.81;44.80;84.08;;
52872;Laerm;40124;52.198;9.902;2023-12-28T12:59:54;73.59;43.19;89.86;;
52872;Laerm;40124;52.198;9.902;2023-12-28T13:02:22;67.17;45.83;80.10;;
52872;Laerm;40124;52.198;9.902;2023-12-28T13:04:47;68.22;44.58;80.21;;
52872;Laerm;40124;52.198;9.902;2023-12-28T13:07:12;66.69;45.30;78.61;;
52872;Laerm;40124;52.198;9.902;2023-12-28T13:09:37;72.87;49.43;87.61;;
52872;Laerm;40124;52.198;9.902;2023-12-28T13:12:03;71.22;49.93;82.65;;
52872;Laerm;40124;52.198;9.902;2023-12-28T13:14:28;69.53;44.27;80.86;;
52872;Laerm;40124;52.198;9.902;2023-12-28T13:16:54;69.41;47.38;81.65;;
52872;Laerm;40124;52.198;9.902;2023-12-28T13:19:20;71.92;47.26;85.50;;
52872;Laerm;40124;52.198;9.902;2023-12-28T13:21:45;70.47;49.02;83.57;;
52872;Laerm;40124;52.198;9.902;2023-12-28T13:24:10;67.84;43.99;81.56;;
52872;Laerm;40124;52.198;9.902;2023-12-28T13:26:35;70.70;44.94;82.61;;
52872;Laerm;40124;52.198;9.902;2023-12-28T13:29:00;72.49;52.61;84.03;;
52872;Laerm;40124;52.198;9.902;2023-12-28T13:31:25;70.80;45.89;83.69;;
52872;Laerm;40124;52.198;9.902;2023-12-28T13:33:51;69.02;44.51;80.90;;
52872;Laerm;40124;52.198;9.902;2023-12-28T13:36:16;72.65;43.39;90.24;;
52872;Laerm;40124;52.198;9.902;2023-12-28T13:38:43;69.16;42.76;79.53;;